Time;durP1;ratioP1;P1;durP2;ratioP2;P2;SDS_P1;SDS_P2;PMS_P1;PMS_P2;Temp;Humidity;BMP_temperature;BMP_pressure;BME280_temperature;BME280_humidity;BME280_pressure;Samples;Min_cycle;Max_cycle;Signal;HPM_P1;HPM_P2
2023/02/25 00:02:10;;;;;;;1.87;1.63;;;;;;;;;;6185811;28;20451;-77
2023/02/25 00:05:16;;;;;;;2.23;2.00;;;;;;;;;;6207772;28;20316;-78
2023/02/25 00:08:22;;;;;;;6.73;1.73;;;;;;;;;;6210144;28;20358;-78
2023/02/25 00:11:29;;;;;;;2.37;2.00;;;;;;;;;;6208549;28;20291;-77
2023/02/25 00:14:34;;;;;;;2.20;2.10;;;;;;;;;;6209172;28;20299;-77
2023/02/25 00:17:39;;;;;;;2.00;1.90;;;;;;;;;;6208292;28;20583;-77
2023/02/25 00:20:53;;;;;;;2.07;1.97;;;;;;;;;;6208843;28;20300;-77
2023/02/25 00:24:00;;;;;;;2.20;1.70;;;;;;;;;;6208867;28;20299;-77
2023/02/25 00:27:20;;;;;;;1.97;1.80;;;;;;;;;;6209537;28;20295;-76
2023/02/25 00:30:25;;;;;;;2.90;2.27;;;;;;;;;;6207725;28;20289;-77
2023/02/25 00:33:31;;;;;;;1.93;1.83;;;;;;;;;;6208865;28;20300;-77
2023/02/25 00:36:36;;;;;;;2.43;1.90;;;;;;;;;;6208312;28;20586;-77
2023/02/25 00:39:45;;;;;;;2.10;2.10;;;;;;;;;;6208791;28;20666;-77
2023/02/25 00:42:49;;;;;;;2.03;1.80;;;;;;;;;;6209284;28;20298;-77
2023/02/25 00:45:54;;;;;;;3.63;2.20;;;;;;;;;;6191311;28;20606;-79
2023/02/25 00:49:01;;;;;;;3.53;2.57;;;;;;;;;;6208473;28;20459;-76
2023/02/25 00:52:07;;;;;;;2.20;2.10;;;;;;;;;;6191744;28;20297;-79
2023/02/25 00:55:16;;;;;;;2.70;2.50;;;;;;;;;;6191834;28;20343;-78
2023/02/25 00:58:21;;;;;;;2.60;2.40;;;;;;;;;;6190745;28;20365;-76
2023/02/25 01:01:32;;;;;;;2.60;2.50;;;;;;;;;;6208093;28;20289;-77
2023/02/25 01:04:37;;;;;;;2.57;2.43;;;;;;;;;;6196150;28;20582;-77
2023/02/25 01:07:44;;;;;;;2.30;2.20;;;;;;;;;;6199838;28;20292;-76
2023/02/25 01:10:52;;;;;;;3.57;2.53;;;;;;;;;;6167307;28;20599;-77
2023/02/25 01:14:15;;;;;;;2.57;2.33;;;;;;;;;;6160518;28;20298;-77
2023/02/25 01:17:20;;;;;;;2.73;2.50;;;;;;;;;;6160737;28;20490;-76
2023/02/25 01:20:25;;;;;;;3.13;2.93;;;;;;;;;;6158817;28;20311;-76
2023/02/25 01:23:30;;;;;;;3.03;2.83;;;;;;;;;;6160387;28;20303;-77
2023/02/25 01:26:41;;;;;;;3.00;2.80;;;;;;;;;;6161016;28;20303;-77
2023/02/25 01:29:46;;;;;;;2.47;2.33;;;;;;;;;;6160722;28;20305;-77
2023/02/25 01:32:52;;;;;;;3.13;2.97;;;;;;;;;;6166050;28;20298;-76
2023/02/25 01:35:57;;;;;;;3.80;2.80;;;;;;;;;;6179631;28;20298;-78
2023/02/25 01:39:03;;;;;;;5.77;3.00;;;;;;;;;;6179842;28;20362;-76
2023/02/25 01:42:14;;;;;;;3.27;3.00;;;;;;;;;;6164155;29;20302;-78
2023/02/25 01:45:37;;;;;;;7.13;3.20;;;;;;;;;;6163325;29;20325;-78
2023/02/25 01:48:42;;;;;;;3.47;3.17;;;;;;;;;;6163653;28;20295;-78
2023/02/25 01:51:50;;;;;;;7.57;3.13;;;;;;;;;;6164838;28;20294;-76
2023/02/25 01:54:57;;;;;;;4.17;3.43;;;;;;;;;;6177400;28;20403;-77
2023/02/25 01:58:04;;;;;;;3.50;3.20;;;;;;;;;;6179654;28;20299;-78
2023/02/25 02:01:14;;;;;;;5.17;3.03;;;;;;;;;;6194445;23;20306;-81
2023/02/25 02:04:21;;;;;;;3.90;3.10;;;;;;;;;;6171132;28;20331;-80
2023/02/25 02:07:26;;;;;;;3.00;2.77;;;;;;;;;;6189013;28;20454;-81
2023/02/25 02:10:31;;;;;;;4.47;3.40;;;;;;;;;;6190398;28;20300;-80
2023/02/25 02:13:40;;;;;;;6.47;3.40;;;;;;;;;;6190276;28;20531;-79
2023/02/25 02:17:01;;;;;;;3.27;3.10;;;;;;;;;;6191625;28;20292;-80
2023/02/25 02:20:13;;;;;;;2.83;2.73;;;;;;;;;;6190997;28;20312;-82
2023/02/25 02:23:34;;;;;;;5.57;3.47;;;;;;;;;;6190474;28;20299;-80
2023/02/25 02:26:57;;;;;;;3.63;3.40;;;;;;;;;;6190188;28;20314;-81
2023/02/25 02:30:35;;;;;;;4.93;3.17;;;;;;;;;;6175618;28;20487;-80
2023/02/25 02:33:47;;;;;;;4.13;3.17;;;;;;;;;;6166069;28;20308;-80
2023/02/25 02:36:59;;;;;;;4.47;3.37;;;;;;;;;;6188619;28;20297;-82
2023/02/25 02:40:23;;;;;;;2.93;2.73;;;;;;;;;;6188092;28;20324;-81
2023/02/25 02:43:37;;;;;;;3.13;2.87;;;;;;;;;;6168347;28;20401;-79
2023/02/25 02:46:47;;;;;;;3.33;2.77;;;;;;;;;;6170909;28;20447;-81
2023/02/25 02:49:56;;;;;;;3.13;2.83;;;;;;;;;;6187340;28;20304;-81
2023/02/25 02:53:06;;;;;;;3.17;2.97;;;;;;;;;;6171012;28;20370;-80
2023/02/25 02:56:15;;;;;;;2.50;2.30;;;;;;;;;;6170423;28;20299;-80
2023/02/25 02:59:23;;;;;;;3.10;2.50;;;;;;;;;;6185910;28;20291;-80
2023/02/25 03:02:34;;;;;;;2.50;2.30;;;;;;;;;;6179119;28;20303;-80
2023/02/25 03:05:42;;;;;;;3.50;2.10;;;;;;;;;;6178466;28;20305;-79
2023/02/25 03:08:50;;;;;;;2.17;1.83;;;;;;;;;;6162168;28;20300;-79
2023/02/25 03:11:55;;;;;;;2.30;2.07;;;;;;;;;;6187072;28;20327;-79
2023/02/25 03:15:01;;;;;;;2.00;1.90;;;;;;;;;;6187010;28;20631;-81
2023/02/25 03:18:15;;;;;;;1.57;1.57;;;;;;;;;;6170757;28;20314;-80
2023/02/25 03:21:26;;;;;;;4.47;2.30;;;;;;;;;;6170209;28;20508;-80
2023/02/25 03:24:35;;;;;;;2.30;1.93;;;;;;;;;;6187017;28;20317;-80
2023/02/25 03:27:43;;;;;;;2.33;1.67;;;;;;;;;;6186090;28;20583;-80
2023/02/25 03:30:57;;;;;;;2.00;1.70;;;;;;;;;;6185853;28;20326;-79
2023/02/25 03:34:07;;;;;;;1.60;1.50;;;;;;;;;;6195342;28;20291;-80
2023/02/25 03:37:17;;;;;;;4.00;1.70;;;;;;;;;;6180166;28;20301;-80
2023/02/25 03:40:23;;;;;;;3.57;1.50;;;;;;;;;;6188771;28;20304;-79
2023/02/25 03:43:33;;;;;;;1.30;1.30;;;;;;;;;;6171518;28;20273;-81
2023/02/25 03:46:39;;;;;;;1.23;1.20;;;;;;;;;;6187784;28;20292;-80
2023/02/25 03:49:50;;;;;;;1.43;1.10;;;;;;;;;;6169109;28;20295;-81
2023/02/25 03:52:57;;;;;;;2.00;1.20;;;;;;;;;;6187641;28;20401;-80
2023/02/25 03:56:28;;;;;;;2.10;1.17;;;;;;;;;;6184761;28;20379;-80
2023/02/25 03:59:33;;;;;;;1.50;1.00;;;;;;;;;;6176964;28;20303;-81
2023/02/25 04:02:39;;;;;;;3.73;1.20;;;;;;;;;;6160236;28;20517;-79
2023/02/25 04:05:44;;;;;;;2.37;1.00;;;;;;;;;;6160082;28;20491;-80
2023/02/25 04:08:51;;;;;;;1.10;1.00;;;;;;;;;;6163453;28;20321;-81
2023/02/25 04:11:56;;;;;;;1.00;1.00;;;;;;;;;;6179020;28;20321;-80
2023/02/25 04:15:02;;;;;;;0.93;0.90;;;;;;;;;;6162494;28;20305;-80
2023/02/25 04:18:08;;;;;;;0.80;0.80;;;;;;;;;;6162526;28;20297;-80
2023/02/25 04:21:27;;;;;;;1.00;1.00;;;;;;;;;;6178589;28;20300;-80
2023/02/25 04:24:33;;;;;;;0.90;0.90;;;;;;;;;;6163709;28;20377;-80
2023/02/25 04:27:39;;;;;;;1.20;0.70;;;;;;;;;;6178990;28;20297;-80
2023/02/25 04:30:44;;;;;;;0.90;0.90;;;;;;;;;;6161962;28;20298;-80
2023/02/25 04:33:50;;;;;;;0.73;0.73;;;;;;;;;;6162665;28;20301;-82
2023/02/25 04:36:55;;;;;;;1.80;0.80;;;;;;;;;;6161223;28;20300;-80
2023/02/25 04:40:03;;;;;;;3.83;1.00;;;;;;;;;;6162651;28;20300;-80
2023/02/25 04:43:09;;;;;;;0.77;0.77;;;;;;;;;;6161624;28;20301;-81
2023/02/25 04:46:15;;;;;;;0.93;0.87;;;;;;;;;;6162387;28;20305;-80
2023/02/25 04:49:21;;;;;;;0.90;0.90;;;;;;;;;;6161929;28;20486;-81
2023/02/25 04:52:26;;;;;;;0.90;0.90;;;;;;;;;;6160978;28;20276;-80
2023/02/25 04:55:35;;;;;;;1.23;0.90;;;;;;;;;;6161646;28;20641;-81
2023/02/25 04:58:40;;;;;;;0.90;0.90;;;;;;;;;;6161601;28;20403;-81
2023/02/25 05:01:46;;;;;;;0.80;0.80;;;;;;;;;;6172135;28;20364;-81
2023/02/25 05:04:52;;;;;;;0.80;0.80;;;;;;;;;;6186868;28;20656;-81
2023/02/25 05:07:57;;;;;;;0.90;0.90;;;;;;;;;;6193528;28;20303;-81
2023/02/25 05:11:04;;;;;;;0.80;0.80;;;;;;;;;;6192929;28;20475;-80
2023/02/25 05:14:11;;;;;;;0.87;0.87;;;;;;;;;;6192872;28;20580;-81
2023/02/25 05:17:16;;;;;;;0.90;0.90;;;;;;;;;;6193717;28;20302;-80
2023/02/25 05:20:22;;;;;;;0.90;0.90;;;;;;;;;;6193252;28;20306;-80
2023/02/25 05:23:27;;;;;;;0.83;0.83;;;;;;;;;;6193321;28;20316;-82
2023/02/25 05:26:33;;;;;;;0.77;0.70;;;;;;;;;;6193719;28;20300;-81
2023/02/25 05:29:39;;;;;;;0.90;0.90;;;;;;;;;;6193893;28;20295;-81
2023/02/25 05:32:44;;;;;;;0.70;0.70;;;;;;;;;;6193458;28;20475;-81
2023/02/25 05:35:50;;;;;;;1.10;1.10;;;;;;;;;;6192644;28;20308;-80
2023/02/25 05:38:57;;;;;;;0.80;0.80;;;;;;;;;;6192960;28;20607;-80
2023/02/25 05:42:04;;;;;;;1.13;1.00;;;;;;;;;;6193487;28;20304;-80
2023/02/25 05:45:11;;;;;;;0.90;0.90;;;;;;;;;;6192966;28;20288;-81
2023/02/25 05:48:16;;;;;;;0.80;0.80;;;;;;;;;;6192652;28;20421;-80
2023/02/25 05:51:22;;;;;;;0.90;0.90;;;;;;;;;;6192896;28;20320;-80
2023/02/25 05:54:27;;;;;;;1.47;0.90;;;;;;;;;;6192379;28;20316;-81
2023/02/25 05:57:34;;;;;;;0.97;0.97;;;;;;;;;;6193716;28;20296;-81
2023/02/25 06:00:40;;;;;;;3.10;1.10;;;;;;;;;;6192877;28;20302;-80
2023/02/25 06:03:46;;;;;;;1.90;0.80;;;;;;;;;;6175939;28;20292;-81
2023/02/25 06:06:51;;;;;;;1.87;0.93;;;;;;;;;;6193391;28;20310;-81
2023/02/25 06:09:59;;;;;;;0.90;0.90;;;;;;;;;;6192462;28;20299;-80
2023/02/25 06:13:07;;;;;;;0.77;0.77;;;;;;;;;;6175079;28;20319;-80
2023/02/25 06:16:13;;;;;;;1.03;0.90;;;;;;;;;;6174535;28;20296;-81
2023/02/25 06:19:18;;;;;;;2.73;0.90;;;;;;;;;;6191753;28;20334;-79
2023/02/25 06:22:24;;;;;;;1.00;1.00;;;;;;;;;;6171439;28;20295;-80
2023/02/25 06:25:29;;;;;;;1.00;1.00;;;;;;;;;;6188442;28;20593;-80
2023/02/25 06:28:36;;;;;;;1.13;0.90;;;;;;;;;;6187173;28;20300;-81
2023/02/25 06:31:42;;;;;;;1.13;1.00;;;;;;;;;;6189044;28;20317;-80
2023/02/25 06:34:47;;;;;;;0.87;0.80;;;;;;;;;;6171120;28;20304;-80
2023/02/25 06:37:55;;;;;;;4.77;1.20;;;;;;;;;;6186897;28;20305;-80
2023/02/25 06:41:00;;;;;;;1.10;1.00;;;;;;;;;;6188599;28;20305;-80
2023/02/25 06:44:07;;;;;;;0.73;0.73;;;;;;;;;;6188259;28;20303;-81
2023/02/25 06:47:12;;;;;;;1.20;1.10;;;;;;;;;;6189310;28;20313;-81
2023/02/25 06:50:19;;;;;;;3.50;1.10;;;;;;;;;;6189592;28;20381;-82
2023/02/25 06:53:24;;;;;;;0.80;0.80;;;;;;;;;;6176716;28;20293;-81
2023/02/25 06:56:29;;;;;;;1.27;1.17;;;;;;;;;;6196360;28;20294;-80
2023/02/25 06:59:36;;;;;;;1.37;0.90;;;;;;;;;;6171736;28;20296;-80
2023/02/25 07:02:41;;;;;;;0.93;0.93;;;;;;;;;;6187775;28;20431;-81
2023/02/25 07:05:46;;;;;;;2.23;0.90;;;;;;;;;;6187346;28;20554;-80
2023/02/25 07:08:51;;;;;;;0.70;0.70;;;;;;;;;;6170467;28;20318;-80
2023/02/25 07:11:56;;;;;;;3.43;0.93;;;;;;;;;;6188048;28;20387;-80
2023/02/25 07:15:03;;;;;;;0.93;0.93;;;;;;;;;;6187775;28;20296;-80
2023/02/25 07:18:11;;;;;;;5.17;1.00;;;;;;;;;;6187340;28;20308;-80
2023/02/25 07:21:16;;;;;;;1.43;0.93;;;;;;;;;;6187709;28;20293;-79
2023/02/25 07:24:22;;;;;;;1.00;1.00;;;;;;;;;;6186807;28;20625;-80
2023/02/25 07:27:27;;;;;;;0.90;0.90;;;;;;;;;;6188049;28;20308;-79
2023/02/25 07:30:34;;;;;;;1.20;1.20;;;;;;;;;;6188231;28;20300;-81
2023/02/25 07:33:40;;;;;;;0.80;0.80;;;;;;;;;;6187113;28;20304;-80
2023/02/25 07:36:45;;;;;;;1.13;1.13;;;;;;;;;;6187860;28;20301;-80
2023/02/25 07:39:51;;;;;;;0.97;0.97;;;;;;;;;;6186578;28;20444;-80
2023/02/25 07:42:58;;;;;;;3.70;1.47;;;;;;;;;;6186767;28;20300;-81
2023/02/25 07:46:06;;;;;;;1.03;0.93;;;;;;;;;;6170451;28;20289;-81
2023/02/25 07:49:11;;;;;;;3.63;1.07;;;;;;;;;;6186365;28;20441;-81
2023/02/25 07:52:16;;;;;;;5.37;1.00;;;;;;;;;;6187187;28;20335;-80
2023/02/25 07:55:22;;;;;;;1.13;1.13;;;;;;;;;;6185582;28;20321;-79
2023/02/25 07:58:27;;;;;;;1.50;1.10;;;;;;;;;;6186172;28;20297;-80
2023/02/25 08:01:38;;;;;;;1.33;0.97;;;;;;;;;;6186624;28;20384;-80
2023/02/25 08:04:43;;;;;;;1.30;1.00;;;;;;;;;;6169597;28;20368;-82
2023/02/25 08:07:48;;;;;;;1.00;1.00;;;;;;;;;;6186683;28;20311;-80
2023/02/25 08:10:53;;;;;;;2.73;1.03;;;;;;;;;;6186924;28;20297;-80
2023/02/25 08:14:00;;;;;;;5.20;1.10;;;;;;;;;;6169347;28;20301;-82
2023/02/25 08:17:07;;;;;;;1.00;1.00;;;;;;;;;;6186563;28;20297;-81
2023/02/25 08:20:13;;;;;;;1.00;1.00;;;;;;;;;;6185972;28;20297;-81
2023/02/25 08:23:18;;;;;;;1.20;1.03;;;;;;;;;;6186394;28;20569;-83
2023/02/25 08:26:26;;;;;;;3.47;1.67;;;;;;;;;;6187124;28;20297;-81
2023/02/25 08:29:31;;;;;;;1.63;1.20;;;;;;;;;;6168946;28;20305;-81
2023/02/25 08:32:38;;;;;;;1.57;1.10;;;;;;;;;;6187120;28;20294;-82
2023/02/25 08:35:46;;;;;;;1.00;0.80;;;;;;;;;;6169352;28;20292;-81
2023/02/25 08:38:51;;;;;;;1.63;1.33;;;;;;;;;;6185566;28;20593;-80
2023/02/25 08:41:57;;;;;;;0.97;0.93;;;;;;;;;;6186398;28;20330;-82
2023/02/25 08:45:02;;;;;;;1.03;1.03;;;;;;;;;;6185975;28;20298;-81
2023/02/25 08:48:10;;;;;;;1.00;1.00;;;;;;;;;;6168252;28;20296;-81
2023/02/25 08:51:15;;;;;;;4.67;1.47;;;;;;;;;;6186402;28;20485;-81
2023/02/25 08:54:21;;;;;;;3.60;3.03;;;;;;;;;;6184336;28;20605;-82
2023/02/25 08:57:26;;;;;;;1.27;1.17;;;;;;;;;;6186023;28;20299;-81
2023/02/25 09:00:31;;;;;;;6.30;2.80;;;;;;;;;;6185712;28;20294;-81
2023/02/25 09:03:38;;;;;;;15.50;7.10;;;;;;;;;;6185720;28;20356;-81
2023/02/25 09:06:47;;;;;;;2.60;2.40;;;;;;;;;;6186348;28;20297;-81
2023/02/25 09:09:52;;;;;;;1.27;1.20;;;;;;;;;;6185411;28;20301;-79
2023/02/25 09:12:57;;;;;;;2.00;1.67;;;;;;;;;;6186814;28;20293;-81
2023/02/25 09:16:02;;;;;;;1.40;1.40;;;;;;;;;;6185616;28;20301;-81
2023/02/25 09:19:11;;;;;;;1.70;1.60;;;;;;;;;;6185331;28;20403;-81
2023/02/25 09:22:18;;;;;;;3.70;1.60;;;;;;;;;;6185759;28;20348;-78
2023/02/25 09:25:23;;;;;;;3.80;2.00;;;;;;;;;;6184110;28;20297;-80
2023/02/25 09:28:29;;;;;;;3.27;1.83;;;;;;;;;;6184854;28;20550;-78
2023/02/25 09:31:36;;;;;;;1.63;1.17;;;;;;;;;;6169176;28;20278;-78
2023/02/25 09:34:43;;;;;;;1.37;1.23;;;;;;;;;;6174524;28;20303;-82
2023/02/25 09:37:48;;;;;;;3.23;1.70;;;;;;;;;;6196108;28;20269;-79
2023/02/25 09:40:54;;;;;;;1.40;1.30;;;;;;;;;;6197057;28;20293;-80
2023/02/25 09:44:04;;;;;;;1.57;1.47;;;;;;;;;;6196052;28;20258;-81
2023/02/25 09:47:18;;;;;;;1.97;1.13;;;;;;;;;;6198721;28;20290;-82
2023/02/25 09:50:28;;;;;;;3.60;1.73;;;;;;;;;;6187753;28;20302;-80
2023/02/25 09:53:36;;;;;;;1.27;1.17;;;;;;;;;;6189341;28;20305;-84
2023/02/25 09:56:42;;;;;;;1.53;1.43;;;;;;;;;;6195250;28;20417;-80
2023/02/25 09:59:47;;;;;;;1.50;1.23;;;;;;;;;;6190973;28;20319;-84
2023/02/25 10:02:55;;;;;;;1.53;1.20;;;;;;;;;;6189600;28;20307;-80
2023/02/25 10:06:09;;;;;;;1.90;1.33;;;;;;;;;;6190380;28;20309;-81
2023/02/25 10:09:22;;;;;;;2.73;1.20;;;;;;;;;;6191708;28;20293;-87
2023/02/25 10:12:35;;;;;;;1.40;1.30;;;;;;;;;;6190098;28;20400;-82
2023/02/25 10:15:50;;;;;;;1.93;1.83;;;;;;;;;;6190761;28;20293;-83
2023/02/25 10:19:07;;;;;;;3.73;1.60;;;;;;;;;;6189696;28;20380;-85
2023/02/25 10:22:33;;;;;;;1.87;1.50;;;;;;;;;;6175157;28;20294;-85
2023/02/25 10:25:43;;;;;;;3.80;1.77;;;;;;;;;;6165345;28;20301;-78
2023/02/25 10:28:52;;;;;;;2.93;1.23;;;;;;;;;;6165413;28;20305;-79
2023/02/25 10:32:00;;;;;;;1.50;1.40;;;;;;;;;;6166701;28;20303;-81
2023/02/25 10:35:15;;;;;;;3.57;1.33;;;;;;;;;;6164231;28;20295;-82
2023/02/25 10:38:22;;;;;;;2.20;1.30;;;;;;;;;;6166468;28;20301;-82
2023/02/25 10:41:28;;;;;;;2.87;1.70;;;;;;;;;;6165679;28;20310;-81
2023/02/25 10:44:34;;;;;;;2.40;1.20;;;;;;;;;;6164806;28;20310;-82
2023/02/25 10:47:42;;;;;;;5.63;1.50;;;;;;;;;;6164948;28;20310;-82
2023/02/25 10:51:04;;;;;;;3.23;2.63;;;;;;;;;;6164979;28;20302;-83
2023/02/25 10:54:14;;;;;;;1.70;1.50;;;;;;;;;;6165364;29;20303;-80
2023/02/25 10:57:25;;;;;;;1.50;1.40;;;;;;;;;;6165897;28;20472;-82
2023/02/25 11:00:32;;;;;;;2.80;1.60;;;;;;;;;;6168216;28;20323;-80
2023/02/25 11:03:46;;;;;;;4.30;1.53;;;;;;;;;;6189004;28;20297;-82
2023/02/25 11:06:51;;;;;;;2.73;1.30;;;;;;;;;;6171494;28;20315;-81
2023/02/25 11:10:11;;;;;;;1.43;1.33;;;;;;;;;;6180676;28;20601;-81
2023/02/25 11:13:29;;;;;;;1.93;1.40;;;;;;;;;;6188058;28;20293;-81
2023/02/25 11:16:36;;;;;;;2.70;1.37;;;;;;;;;;6186966;28;20312;-80
2023/02/25 11:19:42;;;;;;;2.27;1.43;;;;;;;;;;6187038;28;20308;-81
2023/02/25 11:22:47;;;;;;;2.90;1.13;;;;;;;;;;6186892;28;20372;-80
2023/02/25 11:25:54;;;;;;;5.80;2.63;;;;;;;;;;6188820;28;20312;-81
2023/02/25 11:29:01;;;;;;;1.83;1.73;;;;;;;;;;6187672;28;20595;-82
2023/02/25 11:32:12;;;;;;;3.27;1.20;;;;;;;;;;6188902;28;20293;-82
2023/02/25 11:35:19;;;;;;;1.33;1.23;;;;;;;;;;6187558;28;20294;-82
2023/02/25 11:38:29;;;;;;;3.63;1.40;;;;;;;;;;6187528;28;20294;-83
2023/02/25 11:41:36;;;;;;;3.13;1.33;;;;;;;;;;6187684;28;20387;-81
2023/02/25 11:44:46;;;;;;;1.77;1.30;;;;;;;;;;6170573;28;20297;-83
2023/02/25 11:47:53;;;;;;;1.60;1.30;;;;;;;;;;6187716;28;20294;-82
2023/02/25 11:51:09;;;;;;;3.63;1.60;;;;;;;;;;6170071;28;20304;-82
2023/02/25 11:54:25;;;;;;;1.57;1.47;;;;;;;;;;6161828;28;20438;-81
2023/02/25 11:57:35;;;;;;;3.40;1.70;;;;;;;;;;6163424;29;20296;-82
2023/02/25 12:00:45;;;;;;;3.13;1.10;;;;;;;;;;6164193;28;20300;-82
2023/02/25 12:04:21;;;;;;;1.50;1.40;;;;;;;;;;6186264;28;20291;-82
2023/02/25 12:07:55;;;;;;;1.27;1.10;;;;;;;;;;6179764;28;20275;-82
2023/02/25 12:11:49;;;;;;;2.93;1.50;;;;;;;;;;6169524;28;20299;-83
2023/02/25 12:15:20;;;;;;;1.97;1.57;;;;;;;;;;6185510;28;20499;-81
2023/02/25 12:18:45;;;;;;;2.13;2.00;;;;;;;;;;6186146;28;20579;-81
2023/02/25 12:22:13;;;;;;;3.37;1.57;;;;;;;;;;6186565;28;20296;-82
2023/02/25 12:25:25;;;;;;;1.80;1.13;;;;;;;;;;6162599;28;20290;-82
2023/02/25 12:28:44;;;;;;;1.97;1.50;;;;;;;;;;6162565;28;20297;-80
2023/02/25 12:32:13;;;;;;;2.23;1.57;;;;;;;;;;6182075;28;20305;-79
2023/02/25 12:35:30;;;;;;;2.00;1.80;;;;;;;;;;6169926;28;20580;-82
2023/02/25 12:39:16;;;;;;;2.40;1.10;;;;;;;;;;6186041;28;20296;-80
2023/02/25 12:42:46;;;;;;;1.97;1.60;;;;;;;;;;6186036;28;20468;-79
2023/02/25 12:46:21;;;;;;;2.93;1.30;;;;;;;;;;6184820;28;20291;-79
2023/02/25 12:49:53;;;;;;;3.67;1.60;;;;;;;;;;6167053;28;20301;-78
2023/02/25 12:53:16;;;;;;;1.83;1.37;;;;;;;;;;6184956;28;20301;-79
2023/02/25 12:56:44;;;;;;;1.70;1.60;;;;;;;;;;6186075;28;20314;-79
2023/02/25 13:00:29;;;;;;;3.17;1.20;;;;;;;;;;6185425;28;20316;-76
2023/02/25 13:03:46;;;;;;;3.70;1.40;;;;;;;;;;6185506;28;20293;-80
2023/02/25 13:07:13;;;;;;;5.47;1.53;;;;;;;;;;6185461;28;20301;-82
2023/02/25 13:10:37;;;;;;;2.80;1.97;;;;;;;;;;6184526;28;20321;-85
2023/02/25 13:14:20;;;;;;;5.40;1.40;;;;;;;;;;6183666;28;20336;-78
2023/02/25 13:17:43;;;;;;;1.90;1.33;;;;;;;;;;6077892;28;20315;-79
2023/02/25 13:21:10;;;;;;;3.60;1.53;;;;;;;;;;6184227;28;20604;-81
2023/02/25 13:24:27;;;;;;;3.60;1.83;;;;;;;;;;6185214;28;20297;-80
2023/02/25 13:27:57;;;;;;;2.07;1.77;;;;;;;;;;6188779;28;20299;-79
2023/02/25 13:31:07;;;;;;;4.47;2.47;;;;;;;;;;6151041;29;20617;-86
2023/02/25 13:34:23;;;;;;;3.80;2.17;;;;;;;;;;6188560;28;20305;-82
2023/02/25 13:37:40;;;;;;;2.00;1.80;;;;;;;;;;6188045;28;20277;-82
2023/02/25 13:41:19;;;;;;;3.07;1.30;;;;;;;;;;6167080;28;20315;-77
2023/02/25 13:44:47;;;;;;;2.77;1.33;;;;;;;;;;6180786;28;20300;-81
2023/02/25 13:48:01;;;;;;;2.43;1.33;;;;;;;;;;6177479;28;20309;-84
2023/02/25 13:51:36;;;;;;;4.30;1.37;;;;;;;;;;6189931;28;20293;-82
2023/02/25 13:55:33;;;;;;;2.67;1.40;;;;;;;;;;6163946;28;20321;-79
2023/02/25 13:59:02;;;;;;;2.30;1.50;;;;;;;;;;6100351;28;20344;-78
2023/02/25 14:02:26;;;;;;;1.27;1.23;;;;;;;;;;6183224;28;20297;-86
2023/02/25 14:05:57;;;;;;;1.73;1.50;;;;;;;;;;6175640;28;20327;-85
2023/02/25 14:09:21;;;;;;;2.87;1.40;;;;;;;;;;6175362;28;20380;-79
2023/02/25 14:12:42;;;;;;;4.00;2.10;;;;;;;;;;6181884;28;20323;-80
2023/02/25 14:15:55;;;;;;;2.87;1.70;;;;;;;;;;6186455;28;20301;-80
2023/02/25 14:19:13;;;;;;;2.77;1.30;;;;;;;;;;6168780;28;20310;-81
2023/02/25 14:22:25;;;;;;;5.70;1.87;;;;;;;;;;6189489;28;20309;-82
2023/02/25 14:25:44;;;;;;;2.63;1.50;;;;;;;;;;6187475;28;20296;-83
2023/02/25 14:28:59;;;;;;;5.73;1.33;;;;;;;;;;6188466;28;20299;-84
2023/02/25 14:32:28;;;;;;;3.43;1.50;;;;;;;;;;6183452;28;20302;-81
2023/02/25 14:35:46;;;;;;;3.87;1.50;;;;;;;;;;6174651;28;20370;-82
2023/02/25 14:39:13;;;;;;;1.83;1.30;;;;;;;;;;6187073;28;20445;-84
2023/02/25 14:42:29;;;;;;;2.43;1.40;;;;;;;;;;6173471;28;20317;-85
2023/02/25 14:45:37;;;;;;;4.27;1.50;;;;;;;;;;6183118;28;20604;-84
2023/02/25 14:48:48;;;;;;;3.03;1.50;;;;;;;;;;6188825;28;20289;-84
2023/02/25 14:52:20;;;;;;;3.47;1.30;;;;;;;;;;6168625;28;20592;-82
2023/02/25 14:55:53;;;;;;;3.60;1.57;;;;;;;;;;6164243;28;20318;-81
2023/02/25 14:59:17;;;;;;;1.13;1.13;;;;;;;;;;6188097;28;20586;-81
2023/02/25 15:02:45;;;;;;;2.00;1.40;;;;;;;;;;6188808;28;20310;-83
2023/02/25 15:06:02;;;;;;;1.80;1.37;;;;;;;;;;6185531;28;20308;-80
2023/02/25 15:09:33;;;;;;;2.10;1.40;;;;;;;;;;6176989;28;20292;-82
2023/02/25 15:13:27;;;;;;;4.40;1.50;;;;;;;;;;6147821;29;20306;-84
2023/02/25 15:17:00;;;;;;;3.40;1.53;;;;;;;;;;6089627;29;20588;-82
2023/02/25 15:20:20;;;;;;;2.53;1.50;;;;;;;;;;6091100;29;20302;-81
2023/02/25 15:23:42;;;;;;;2.23;1.30;;;;;;;;;;6090045;29;20347;-83
2023/02/25 15:26:48;;;;;;;2.80;1.23;;;;;;;;;;6090352;29;20304;-81
2023/02/25 15:30:04;;;;;;;2.20;1.27;;;;;;;;;;6090066;29;20344;-81
2023/02/25 15:33:25;;;;;;;1.10;1.10;;;;;;;;;;6094949;29;20303;-83
2023/02/25 15:36:43;;;;;;;1.50;1.40;;;;;;;;;;6093144;29;20429;-83
2023/02/25 15:39:52;;;;;;;1.10;1.10;;;;;;;;;;6090042;29;20308;-82
2023/02/25 15:43:02;;;;;;;2.00;1.13;;;;;;;;;;6090199;29;20600;-80
2023/02/25 15:46:41;;;;;;;1.87;1.20;;;;;;;;;;6099948;29;20292;-80
2023/02/25 15:49:47;;;;;;;1.40;1.30;;;;;;;;;;6162880;28;20297;-78
2023/02/25 15:52:58;;;;;;;2.60;1.33;;;;;;;;;;6162995;28;20556;-83
2023/02/25 15:56:26;;;;;;;1.10;1.10;;;;;;;;;;6178222;28;20494;-81
2023/02/25 15:59:45;;;;;;;2.23;1.60;;;;;;;;;;6162617;28;20304;-82
2023/02/25 16:02:57;;;;;;;2.00;1.20;;;;;;;;;;6180242;28;20304;-80
2023/02/25 16:06:15;;;;;;;2.20;1.27;;;;;;;;;;6163426;29;20451;-80
2023/02/25 16:09:20;;;;;;;2.90;1.27;;;;;;;;;;6162888;28;20297;-80
2023/02/25 16:12:28;;;;;;;3.60;1.57;;;;;;;;;;6163493;28;20597;-81
2023/02/25 16:15:35;;;;;;;4.83;1.40;;;;;;;;;;6162731;28;20307;-82
2023/02/25 16:18:44;;;;;;;2.37;1.20;;;;;;;;;;6162558;28;20304;-80
2023/02/25 16:21:52;;;;;;;1.33;1.33;;;;;;;;;;6162880;28;20314;-80
2023/02/25 16:25:00;;;;;;;1.20;1.20;;;;;;;;;;6162538;28;20297;-80
2023/02/25 16:28:14;;;;;;;1.73;1.63;;;;;;;;;;6162596;28;20307;-78
2023/02/25 16:31:21;;;;;;;1.70;1.60;;;;;;;;;;6162921;28;20317;-82
2023/02/25 16:34:31;;;;;;;3.20;1.93;;;;;;;;;;6168340;28;20572;-82
2023/02/25 16:37:45;;;;;;;1.13;1.10;;;;;;;;;;6169430;28;20275;-84
2023/02/25 16:40:50;;;;;;;2.53;1.43;;;;;;;;;;6185382;28;20411;-82
2023/02/25 16:43:58;;;;;;;2.83;1.43;;;;;;;;;;6184775;28;20307;-79
2023/02/25 16:47:03;;;;;;;1.40;1.40;;;;;;;;;;6185847;28;20295;-82
2023/02/25 16:50:14;;;;;;;1.70;1.60;;;;;;;;;;6185757;28;20308;-83
2023/02/25 16:53:24;;;;;;;5.50;1.87;;;;;;;;;;6186231;28;20299;-83
2023/02/25 16:56:30;;;;;;;4.00;2.60;;;;;;;;;;6186936;28;20292;-83
2023/02/25 16:59:38;;;;;;;2.37;1.53;;;;;;;;;;6186630;28;20302;-82
2023/02/25 17:02:49;;;;;;;1.67;1.57;;;;;;;;;;6186869;28;20301;-79
2023/02/25 17:06:04;;;;;;;3.10;1.70;;;;;;;;;;6186374;28;20323;-82
2023/02/25 17:09:24;;;;;;;3.50;1.60;;;;;;;;;;6184735;28;20295;-82
2023/02/25 17:12:32;;;;;;;3.13;1.70;;;;;;;;;;6186065;28;20309;-82
2023/02/25 17:15:38;;;;;;;2.93;1.50;;;;;;;;;;6184647;28;20300;-82
2023/02/25 17:18:47;;;;;;;1.67;1.57;;;;;;;;;;6191392;28;20248;-82
2023/02/25 17:21:53;;;;;;;3.27;1.60;;;;;;;;;;6188382;28;20344;-82
2023/02/25 17:24:59;;;;;;;1.87;1.73;;;;;;;;;;6186619;28;20299;-78
2023/02/25 17:28:05;;;;;;;1.93;1.83;;;;;;;;;;6186611;28;20304;-82
2023/02/25 17:31:14;;;;;;;3.23;1.83;;;;;;;;;;6184812;28;20316;-79
2023/02/25 17:34:22;;;;;;;1.87;1.77;;;;;;;;;;6188659;28;20299;-82
2023/02/25 17:37:29;;;;;;;1.60;1.50;;;;;;;;;;6188104;28;20560;-83
2023/02/25 17:40:35;;;;;;;2.30;2.10;;;;;;;;;;6188082;28;20305;-83
2023/02/25 17:43:40;;;;;;;3.33;1.90;;;;;;;;;;6187504;28;20301;-82
2023/02/25 17:46:52;;;;;;;2.13;2.00;;;;;;;;;;6186329;28;20291;-82
2023/02/25 17:49:59;;;;;;;2.27;2.10;;;;;;;;;;6186717;28;20310;-81
2023/02/25 17:53:04;;;;;;;2.03;1.93;;;;;;;;;;6186095;28;20313;-81
2023/02/25 17:56:15;;;;;;;4.03;1.80;;;;;;;;;;6170340;28;20297;-82
2023/02/25 17:59:36;;;;;;;2.00;1.77;;;;;;;;;;6186473;28;20291;-82
2023/02/25 18:02:44;;;;;;;2.40;2.30;;;;;;;;;;6186753;28;20300;-84
2023/02/25 18:05:51;;;;;;;2.93;1.90;;;;;;;;;;6185977;28;20296;-83
2023/02/25 18:08:56;;;;;;;3.13;1.90;;;;;;;;;;6185107;28;20323;-81
2023/02/25 18:12:03;;;;;;;2.20;1.70;;;;;;;;;;6186283;28;20587;-82
2023/02/25 18:15:17;;;;;;;2.50;2.30;;;;;;;;;;6189842;28;20305;-82
2023/02/25 18:18:23;;;;;;;2.60;2.00;;;;;;;;;;6188682;28;20295;-81
2023/02/25 18:21:29;;;;;;;5.73;2.00;;;;;;;;;;6172882;28;20289;-82
2023/02/25 18:24:36;;;;;;;5.43;1.80;;;;;;;;;;6193338;28;20298;-80
2023/02/25 18:27:43;;;;;;;3.03;1.50;;;;;;;;;;6196666;28;20286;-80
2023/02/25 18:30:51;;;;;;;4.17;1.90;;;;;;;;;;6160133;29;20303;-81
2023/02/25 18:33:57;;;;;;;1.70;1.70;;;;;;;;;;6185723;28;20554;-81
2023/02/25 18:37:04;;;;;;;2.93;2.10;;;;;;;;;;6172361;28;20290;-82
2023/02/25 18:40:16;;;;;;;2.80;2.20;;;;;;;;;;6188571;28;20299;-80
2023/02/25 18:43:23;;;;;;;1.87;1.77;;;;;;;;;;6187479;28;20286;-78
2023/02/25 18:46:28;;;;;;;2.33;1.83;;;;;;;;;;6188678;28;20274;-82
2023/02/25 18:49:35;;;;;;;2.17;1.97;;;;;;;;;;6170697;28;20402;-80
2023/02/25 18:52:42;;;;;;;2.23;2.13;;;;;;;;;;6188208;28;20482;-80
2023/02/25 18:55:48;;;;;;;1.67;1.67;;;;;;;;;;6188014;28;20471;-81
2023/02/25 18:58:53;;;;;;;3.43;2.03;;;;;;;;;;6187884;28;20294;-79
2023/02/25 19:01:59;;;;;;;1.87;1.77;;;;;;;;;;6190177;28;20351;-81
2023/02/25 19:05:06;;;;;;;3.27;2.10;;;;;;;;;;6187831;28;20294;-82
2023/02/25 19:08:16;;;;;;;3.80;1.90;;;;;;;;;;6170753;28;20313;-79